createdAt,value
2023-10-04T00:00:14.660Z,54.21
2023-10-04T00:01:14.730Z,54.11
2023-10-04T00:02:14.622Z,54.13
2023-10-04T00:03:14.654Z,54.21
2023-10-04T00:04:14.835Z,54.11
2023-10-04T00:05:14.556Z,54.13
2023-10-04T00:06:14.630Z,54.13
2023-10-04T00:07:14.558Z,54.13
2023-10-04T00:08:14.549Z,54.13
2023-10-04T00:09:14.589Z,54.13
2023-10-04T00:10:14.514Z,54.13
2023-10-04T00:11:14.494Z,54.13
2023-10-04T00:12:14.560Z,54.03
2023-10-04T00:13:14.466Z,54.03
2023-10-04T00:14:14.452Z,54.13
2023-10-04T00:15:14.490Z,54.03
2023-10-04T00:16:14.445Z,54.03
2023-10-04T00:17:14.422Z,54.03
2023-10-04T00:18:14.454Z,54.03
2023-10-04T00:19:14.402Z,54.03
2023-10-04T00:20:14.368Z,54.03
2023-10-04T00:21:14.393Z,54.03
2023-10-04T00:22:14.358Z,54.03
2023-10-04T00:23:14.340Z,54.03
2023-10-04T00:24:14.352Z,54.03
2023-10-04T00:25:14.302Z,53.94
2023-10-04T00:26:14.294Z,53.94
2023-10-04T00:27:14.393Z,53.94
2023-10-04T00:28:14.266Z,53.96
2023-10-04T00:29:14.536Z,54.06
2023-10-04T00:30:14.332Z,53.96
2023-10-04T00:31:14.271Z,53.96
2023-10-04T00:32:14.246Z,53.96
2023-10-04T00:33:14.272Z,53.96
2023-10-04T00:34:14.190Z,53.96
2023-10-04T00:35:14.184Z,53.96
2023-10-04T00:36:14.183Z,53.96
2023-10-04T00:37:14.136Z,53.86
2023-10-04T00:38:14.150Z,53.96
2023-10-04T00:39:14.123Z,53.86
2023-10-04T00:40:14.119Z,53.86
2023-10-04T00:41:14.076Z,53.86
2023-10-04T00:42:14.255Z,53.86
2023-10-04T00:43:14.052Z,53.86
2023-10-04T00:44:14.060Z,53.86
2023-10-04T00:45:14.121Z,53.76
2023-10-04T00:46:14.257Z,53.76
2023-10-04T00:47:14.008Z,53.76
2023-10-04T00:48:14.114Z,53.76
2023-10-04T00:49:13.987Z,53.76
2023-10-04T00:50:13.979Z,53.66
2023-10-04T00:51:14.234Z,53.66
2023-10-04T00:52:13.955Z,53.66
2023-10-04T00:53:13.943Z,53.66
2023-10-04T00:54:13.956Z,53.66
2023-10-04T00:55:13.895Z,53.66
2023-10-04T00:56:14.268Z,53.69
2023-10-04T00:57:13.914Z,53.69
2023-10-04T00:58:13.882Z,53.69
2023-10-04T00:59:14.427Z,53.69
2023-10-04T01:00:13.861Z,53.69
2023-10-04T01:01:13.847Z,53.69
2023-10-04T01:02:14.424Z,53.69
2023-10-04T01:03:13.838Z,53.59
2023-10-04T01:04:13.877Z,53.59
2023-10-04T01:05:13.778Z,53.59
2023-10-04T01:06:13.779Z,53.59
2023-10-04T01:07:13.742Z,53.59
2023-10-04T01:08:13.765Z,53.59
2023-10-04T01:09:13.741Z,53.59
2023-10-04T01:10:13.698Z,53.49
2023-10-04T01:11:13.702Z,53.49
2023-10-04T01:12:13.695Z,53.49
2023-10-04T01:13:13.658Z,53.49
2023-10-04T01:14:13.646Z,53.49
2023-10-04T01:15:13.693Z,53.49
2023-10-04T01:16:13.626Z,53.39
2023-10-04T01:17:13.617Z,53.39
2023-10-04T01:18:13.794Z,53.39
2023-10-04T01:19:13.628Z,53.39
2023-10-04T01:20:13.568Z,53.39
2023-10-04T01:21:13.572Z,53.29
2023-10-04T01:22:13.563Z,53.29
2023-10-04T01:23:13.557Z,53.39
2023-10-04T01:24:13.554Z,53.41
2023-10-04T01:25:13.537Z,53.31
2023-10-04T01:26:13.500Z,53.31
2023-10-04T01:27:13.528Z,53.31
2023-10-04T01:28:13.523Z,53.31
2023-10-04T01:29:13.590Z,53.22
2023-10-04T01:30:13.469Z,53.22
2023-10-04T01:31:13.437Z,53.31
2023-10-04T01:32:13.429Z,53.31
2023-10-04T01:33:13.445Z,53.31
2023-10-04T01:34:13.411Z,53.22
2023-10-04T01:35:13.377Z,53.22
2023-10-04T01:36:13.413Z,53.22
2023-10-04T01:37:13.350Z,53.22
2023-10-04T01:38:13.334Z,53.22
2023-10-04T01:39:13.342Z,53.11
2023-10-04T01:40:13.327Z,53.11
2023-10-04T01:41:13.284Z,53.22
2023-10-04T01:42:13.292Z,53.24
2023-10-04T01:43:13.300Z,53.14
2023-10-04T01:44:13.281Z,53.14
2023-10-04T01:45:13.262Z,53.14
2023-10-04T01:46:13.221Z,53.14
2023-10-04T01:47:13.222Z,53.14
2023-10-04T01:48:13.229Z,53.14
2023-10-04T01:49:13.192Z,53.14
2023-10-04T01:50:13.228Z,53.14
2023-10-04T01:51:13.180Z,53.14
2023-10-04T01:52:13.157Z,53.04
2023-10-04T01:53:13.273Z,53.14
2023-10-04T01:54:13.263Z,53.04
2023-10-04T01:55:13.126Z,53.04
2023-10-04T01:56:13.188Z,53.04
2023-10-04T01:57:13.110Z,53.04
2023-10-04T01:58:13.081Z,53.04
2023-10-04T01:59:13.061Z,53.04
2023-10-04T02:00:13.049Z,53.04
2023-10-04T02:01:13.150Z,53.06
2023-10-04T02:02:13.091Z,53.06
2023-10-04T02:03:13.119Z,53.06
2023-10-04T02:04:13.020Z,53.06
2023-10-04T02:05:12.990Z,52.97
2023-10-04T02:06:12.967Z,52.97
2023-10-04T02:07:12.949Z,52.97
2023-10-04T02:08:12.928Z,52.97
2023-10-04T02:09:12.923Z,52.97
2023-10-04T02:10:12.892Z,52.97
2023-10-04T02:11:12.902Z,52.97
2023-10-04T02:12:12.994Z,52.97
2023-10-04T02:13:12.870Z,52.97
2023-10-04T02:14:12.861Z,52.97
2023-10-04T02:15:12.839Z,52.97
2023-10-04T02:16:13.322Z,52.97
2023-10-04T02:17:12.811Z,52.87
2023-10-04T02:18:12.834Z,52.87
2023-10-04T02:19:12.784Z,52.97
2023-10-04T02:20:12.774Z,52.87
2023-10-04T02:21:12.823Z,52.87
2023-10-04T02:22:12.752Z,52.89
2023-10-04T02:23:13.303Z,52.87
2023-10-04T02:24:12.808Z,52.87
2023-10-04T02:25:12.689Z,52.87
2023-10-04T02:26:12.696Z,52.87
2023-10-04T02:27:12.722Z,52.76
2023-10-04T02:28:12.697Z,52.76
2023-10-04T02:29:12.646Z,52.76
2023-10-04T02:30:12.686Z,52.79
2023-10-04T02:31:12.738Z,52.79
2023-10-04T02:32:12.642Z,52.79
2023-10-04T02:33:12.643Z,52.79
2023-10-04T02:34:12.574Z,52.79
2023-10-04T02:35:12.575Z,52.79
2023-10-04T02:36:12.586Z,52.79
2023-10-04T02:37:12.546Z,52.79
2023-10-04T02:38:12.552Z,52.79
2023-10-04T02:39:12.913Z,52.79
2023-10-04T02:40:12.509Z,52.79
2023-10-04T02:41:12.525Z,52.79
2023-10-04T02:42:12.495Z,52.79
2023-10-04T02:43:12.487Z,52.69
2023-10-04T02:44:12.482Z,52.69
2023-10-04T02:45:12.441Z,52.69
2023-10-04T02:46:12.532Z,52.69
2023-10-04T02:47:12.432Z,52.69
2023-10-04T02:48:12.445Z,52.69
2023-10-04T02:49:12.381Z,52.69
2023-10-04T02:50:12.390Z,52.69
2023-10-04T02:51:12.372Z,52.69
2023-10-04T02:52:12.376Z,52.69
2023-10-04T02:53:12.343Z,52.72
2023-10-04T02:54:12.338Z,52.62
2023-10-04T02:55:12.296Z,52.72
2023-10-04T02:56:12.302Z,52.62
2023-10-04T02:57:12.329Z,52.62
2023-10-04T02:58:12.273Z,52.62
2023-10-04T02:59:12.257Z,52.62
2023-10-04T03:00:12.319Z,52.62
2023-10-04T03:01:12.259Z,52.62
2023-10-04T03:02:12.222Z,52.62
2023-10-04T03:03:12.332Z,52.52
2023-10-04T03:04:12.260Z,52.52
2023-10-04T03:05:12.171Z,52.52
2023-10-04T03:06:12.185Z,52.62
2023-10-04T03:07:12.133Z,52.62
2023-10-04T03:08:12.159Z,52.52
2023-10-04T03:09:12.139Z,52.62
2023-10-04T03:10:12.113Z,52.52
2023-10-04T03:11:12.094Z,52.52
2023-10-04T03:12:12.107Z,52.52
2023-10-04T03:13:12.055Z,52.52
2023-10-04T03:14:12.052Z,52.52
2023-10-04T03:15:12.066Z,52.55
2023-10-04T03:16:12.033Z,52.55
2023-10-04T03:17:12.001Z,52.55
2023-10-04T03:18:12.148Z,52.55
2023-10-04T03:19:12.096Z,52.55
2023-10-04T03:20:11.990Z,52.55
2023-10-04T03:21:12.066Z,52.55
2023-10-04T03:22:11.955Z,52.55
2023-10-04T03:23:11.916Z,52.55
2023-10-04T03:24:11.992Z,52.55
2023-10-04T03:25:11.910Z,52.55
2023-10-04T03:26:11.908Z,52.55
2023-10-04T03:27:11.952Z,52.44
2023-10-04T03:28:11.875Z,52.44
2023-10-04T03:29:11.898Z,52.55
2023-10-04T03:30:11.916Z,52.44
2023-10-04T03:31:11.887Z,52.44
2023-10-04T03:32:11.804Z,52.47
2023-10-04T03:33:12.611Z,52.47
2023-10-04T03:34:11.777Z,52.47
2023-10-04T03:35:11.773Z,52.57
2023-10-04T03:36:11.752Z,52.47
2023-10-04T03:37:11.745Z,52.47
2023-10-04T03:38:11.721Z,52.47
2023-10-04T03:39:11.897Z,52.47
2023-10-04T03:40:11.698Z,52.47
2023-10-04T03:41:11.694Z,52.57
2023-10-04T03:42:11.681Z,52.47
2023-10-04T03:43:11.667Z,52.59
2023-10-04T03:44:11.686Z,52.59
2023-10-04T03:45:11.831Z,52.49
2023-10-04T03:46:11.696Z,52.49
2023-10-04T03:47:12.136Z,52.49
2023-10-04T03:48:11.754Z,52.49
2023-10-04T03:49:11.662Z,52.49
2023-10-04T03:50:11.580Z,52.49
2023-10-04T03:51:13.053Z,52.49
2023-10-04T03:52:11.540Z,52.49
2023-10-04T03:53:11.522Z,52.49
2023-10-04T03:54:11.521Z,52.49
2023-10-04T03:55:11.508Z,52.49
2023-10-04T03:56:11.478Z,52.49
2023-10-04T03:57:11.512Z,52.39
2023-10-04T03:58:11.465Z,52.39
2023-10-04T03:59:11.441Z,52.42
2023-10-04T04:00:11.450Z,52.42
2023-10-04T04:01:11.433Z,52.42
2023-10-04T04:02:11.434Z,52.42
2023-10-04T04:03:11.866Z,52.42
2023-10-04T04:04:11.502Z,52.42
2023-10-04T04:05:11.433Z,52.32
2023-10-04T04:06:11.378Z,52.42
2023-10-04T04:07:11.338Z,52.42
2023-10-04T04:08:11.344Z,52.42
2023-10-04T04:09:11.365Z,52.32
2023-10-04T04:10:11.279Z,52.32
2023-10-04T04:11:11.287Z,52.32
2023-10-04T04:12:11.308Z,52.32
2023-10-04T04:13:11.256Z,52.32
2023-10-04T04:14:11.259Z,52.32
2023-10-04T04:15:11.331Z,52.32
2023-10-04T04:16:11.801Z,52.32
2023-10-04T04:17:11.212Z,52.32
2023-10-04T04:18:11.359Z,52.22
2023-10-04T04:19:11.178Z,52.32
2023-10-04T04:20:11.177Z,52.22
2023-10-04T04:21:11.168Z,52.22
2023-10-04T04:22:11.140Z,52.24
2023-10-04T04:23:11.147Z,52.24
2023-10-04T04:24:11.256Z,52.24
2023-10-04T04:25:11.102Z,52.24
2023-10-04T04:26:11.109Z,52.24
2023-10-04T04:27:11.121Z,52.24
2023-10-04T04:28:11.164Z,52.24
2023-10-04T04:29:11.271Z,52.24
2023-10-04T04:30:11.370Z,52.24
2023-10-04T04:31:11.396Z,52.24
2023-10-04T04:32:11.340Z,52.24
2023-10-04T04:33:11.144Z,52.24
2023-10-04T04:34:10.973Z,52.24
2023-10-04T04:35:11.059Z,52.24
2023-10-04T04:36:11.001Z,52.24
2023-10-04T04:37:10.950Z,52.24
2023-10-04T04:38:10.948Z,52.24
2023-10-04T04:39:10.995Z,52.37
2023-10-04T04:40:10.924Z,52.37
2023-10-04T04:41:10.896Z,52.37
2023-10-04T04:42:10.926Z,52.37
2023-10-04T04:43:10.881Z,52.37
2023-10-04T04:44:10.891Z,52.37
2023-10-04T04:45:10.926Z,52.37
2023-10-04T04:46:10.846Z,52.27
2023-10-04T04:47:10.806Z,52.27
2023-10-04T04:48:10.855Z,52.37
2023-10-04T04:49:10.798Z,52.27
2023-10-04T04:50:10.771Z,52.27
2023-10-04T04:51:10.811Z,52.27
2023-10-04T04:52:10.754Z,52.29
2023-10-04T04:53:10.725Z,52.27
2023-10-04T04:54:10.745Z,52.29
2023-10-04T04:55:10.724Z,52.29
2023-10-04T04:56:10.674Z,52.29
2023-10-04T04:57:10.689Z,52.29
2023-10-04T04:58:10.657Z,52.29
2023-10-04T04:59:10.679Z,52.29
2023-10-04T05:00:10.629Z,52.29
2023-10-04T05:01:10.665Z,52.29
2023-10-04T05:02:10.600Z,52.19
2023-10-04T05:03:10.656Z,52.19
2023-10-04T05:04:10.710Z,52.19
2023-10-04T05:05:10.578Z,52.19
2023-10-04T05:06:10.590Z,52.19
2023-10-04T05:07:10.567Z,52.19
2023-10-04T05:08:12.293Z,52.09
2023-10-04T05:09:10.554Z,52.19
2023-10-04T05:10:10.500Z,52.09
2023-10-04T05:11:10.552Z,52.09
2023-10-04T05:12:10.491Z,52.09
2023-10-04T05:13:10.497Z,52.09
2023-10-04T05:14:10.724Z,52.09
2023-10-04T05:15:10.471Z,52.09
2023-10-04T05:16:10.434Z,52.09
2023-10-04T05:17:10.421Z,52.09
2023-10-04T05:18:10.433Z,52.09
2023-10-04T05:19:10.410Z,51.99
2023-10-04T05:20:10.363Z,52.09
2023-10-04T05:21:10.377Z,51.99
2023-10-04T05:22:10.340Z,52.09
2023-10-04T05:23:10.339Z,51.99
2023-10-04T05:24:10.322Z,51.99
2023-10-04T05:25:10.329Z,51.99
2023-10-04T05:26:10.287Z,52.01
2023-10-04T05:27:10.325Z,51.99
2023-10-04T05:28:10.258Z,51.99
2023-10-04T05:29:10.258Z,51.89
2023-10-04T05:30:10.269Z,52.01
2023-10-04T05:31:10.548Z,52.01
2023-10-04T05:32:10.234Z,51.89
2023-10-04T05:33:10.372Z,51.89
2023-10-04T05:34:12.445Z,51.89
2023-10-04T05:35:10.185Z,51.89
2023-10-04T05:36:10.193Z,51.79
2023-10-04T05:37:10.138Z,51.69
2023-10-04T05:38:10.124Z,51.69
2023-10-04T05:39:10.135Z,51.69
2023-10-04T05:40:10.093Z,51.59
2023-10-04T05:41:10.091Z,51.46
2023-10-04T05:42:10.148Z,51.46
2023-10-04T05:43:10.064Z,51.46
2023-10-04T05:44:10.070Z,51.37
2023-10-04T05:45:10.089Z,51.37
2023-10-04T05:46:10.094Z,51.27
2023-10-04T05:47:10.013Z,51.27
2023-10-04T05:48:10.062Z,51.14
2023-10-04T05:49:10.224Z,51.25
2023-10-04T05:50:09.959Z,51.14
2023-10-04T05:51:10.088Z,51.14
2023-10-04T05:52:09.938Z,51.14
2023-10-04T05:53:10.036Z,51.14
2023-10-04T05:54:10.825Z,51.14
2023-10-04T05:55:09.906Z,51.04
2023-10-04T05:56:09.882Z,51.14
2023-10-04T05:57:09.886Z,51.14
2023-10-04T05:58:09.861Z,51.14
2023-10-04T05:59:09.855Z,51.04
2023-10-04T06:00:09.875Z,51.04
2023-10-04T06:01:09.908Z,51.14
2023-10-04T06:02:09.800Z,51.14
2023-10-04T06:03:09.850Z,51.14
2023-10-04T06:04:09.824Z,51.02
2023-10-04T06:05:09.783Z,51.02
2023-10-04T06:06:09.788Z,50.92
2023-10-04T06:07:09.761Z,50.92
2023-10-04T06:08:09.722Z,50.92
2023-10-04T06:09:09.734Z,50.92
2023-10-04T06:10:09.703Z,50.82
2023-10-04T06:11:09.716Z,50.82
2023-10-04T06:12:09.717Z,50.79
2023-10-04T06:13:09.684Z,50.79
2023-10-04T06:14:09.657Z,50.79
2023-10-04T06:15:09.681Z,50.70
2023-10-04T06:16:09.648Z,50.79
2023-10-04T06:17:10.443Z,50.70
2023-10-04T06:18:09.772Z,50.70
2023-10-04T06:19:19.773Z,50.59
2023-10-04T06:20:09.579Z,50.59
2023-10-04T06:21:09.619Z,50.49
2023-10-04T06:22:09.549Z,50.47
2023-10-04T06:23:09.529Z,50.37
2023-10-04T06:24:11.587Z,50.37
2023-10-04T06:25:09.507Z,50.27
2023-10-04T06:26:09.491Z,50.15
2023-10-04T06:27:09.529Z,50.15
2023-10-04T06:28:09.464Z,50.04
2023-10-04T06:29:09.454Z,49.95
2023-10-04T06:30:09.533Z,50.04
2023-10-04T06:31:09.438Z,49.92
2023-10-04T06:32:09.417Z,49.92
2023-10-04T06:33:09.501Z,49.82
2023-10-04T06:34:09.388Z,49.82
2023-10-04T06:35:09.378Z,49.60
2023-10-04T06:36:09.394Z,49.40
2023-10-04T06:37:09.355Z,49.40
2023-10-04T06:38:09.322Z,49.38
2023-10-04T06:39:09.359Z,49.18
2023-10-04T06:40:09.293Z,49.18
2023-10-04T06:41:09.354Z,49.15
2023-10-04T06:42:09.292Z,49.25
2023-10-04T06:43:09.313Z,49.25
2023-10-04T06:44:09.244Z,49.35
2023-10-04T06:45:09.251Z,49.45
2023-10-04T06:46:09.288Z,49.35
2023-10-04T06:47:09.264Z,49.35
2023-10-04T06:48:09.716Z,49.35
2023-10-04T06:49:09.241Z,49.23
2023-10-04T06:50:09.152Z,49.35
2023-10-04T06:51:09.210Z,49.55
2023-10-04T06:52:09.141Z,49.65
2023-10-04T06:53:09.153Z,49.75
2023-10-04T06:54:09.127Z,49.87
2023-10-04T06:55:09.143Z,49.98
2023-10-04T06:56:09.102Z,50.17
2023-10-04T06:57:09.122Z,50.17
2023-10-04T06:58:09.080Z,50.07
2023-10-04T06:59:09.066Z,49.98
2023-10-04T07:00:09.066Z,49.75
2023-10-04T07:01:09.084Z,49.55
2023-10-04T07:02:09.071Z,49.23
2023-10-04T07:03:09.087Z,49.13
2023-10-04T07:04:09.102Z,49.01
2023-10-04T07:05:09.007Z,49.13
2023-10-04T07:06:09.017Z,49.21
2023-10-04T07:07:08.946Z,49.10
2023-10-04T07:08:08.941Z,49.10
2023-10-04T07:09:08.959Z,48.88
2023-10-04T07:10:09.078Z,48.88
2023-10-04T07:11:08.935Z,49.10
2023-10-04T07:12:08.941Z,49.21
2023-10-04T07:13:08.895Z,49.30
2023-10-04T07:14:08.839Z,49.18
2023-10-04T07:15:08.914Z,49.18
2023-10-04T07:16:08.890Z,49.08
2023-10-04T07:17:08.812Z,48.86
2023-10-04T07:18:09.192Z,48.76
2023-10-04T07:19:08.924Z,48.56
2023-10-04T07:20:08.806Z,48.34
2023-10-04T07:21:08.778Z,48.02
2023-10-04T07:22:08.732Z,47.89
2023-10-04T07:23:09.724Z,47.80
2023-10-04T07:24:08.711Z,47.80
2023-10-04T07:25:08.694Z,47.80
2023-10-04T07:26:08.688Z,47.99
2023-10-04T07:27:08.707Z,48.10
2023-10-04T07:28:08.663Z,48.32
2023-10-04T07:29:08.648Z,48.52
2023-10-04T07:30:08.731Z,48.52
2023-10-04T07:31:08.649Z,48.41
2023-10-04T07:32:08.593Z,48.29
2023-10-04T07:33:08.951Z,48.19
2023-10-04T07:34:08.561Z,48.32
2023-10-04T07:35:09.147Z,48.64
2023-10-04T07:36:08.629Z,48.96
2023-10-04T07:37:08.539Z,49.26
2023-10-04T07:38:08.500Z,49.28
2023-10-04T07:39:08.677Z,49.30
2023-10-04T07:40:08.515Z,49.40
2023-10-04T07:41:08.480Z,49.51
2023-10-04T07:42:08.493Z,49.53
2023-10-04T07:43:08.906Z,49.63
2023-10-04T07:44:08.430Z,49.85
2023-10-04T07:45:08.449Z,50.07
2023-10-04T07:46:08.538Z,50.30
2023-10-04T07:47:08.405Z,50.49
2023-10-04T07:48:08.446Z,50.62
2023-10-04T07:49:08.378Z,50.84
2023-10-04T07:50:08.367Z,51.07
2023-10-04T07:51:08.351Z,51.29
2023-10-04T07:52:08.356Z,51.39
2023-10-04T07:53:08.761Z,51.52
2023-10-04T07:54:08.371Z,51.62
2023-10-04T07:55:08.296Z,51.64
2023-10-04T07:56:08.297Z,51.64
2023-10-04T07:57:08.268Z,51.54
2023-10-04T07:58:08.272Z,51.57
2023-10-04T07:59:08.244Z,51.67
2023-10-04T08:00:08.235Z,51.57
2023-10-04T08:01:08.255Z,51.69
2023-10-04T08:02:08.214Z,51.79
2023-10-04T08:03:09.191Z,51.82
2023-10-04T08:04:08.600Z,51.82
2023-10-04T08:05:08.153Z,51.92
2023-10-04T08:06:08.187Z,51.84
2023-10-04T08:07:08.126Z,51.94
2023-10-04T08:08:08.416Z,51.94
2023-10-04T08:09:08.109Z,51.97
2023-10-04T08:10:08.105Z,51.97
2023-10-04T08:11:08.104Z,51.97
2023-10-04T08:12:08.087Z,51.97
2023-10-04T08:13:08.238Z,51.89
2023-10-04T08:14:08.084Z,51.89
2023-10-04T08:15:08.036Z,51.99
2023-10-04T08:16:08.081Z,52.01
2023-10-04T08:17:08.165Z,52.01
2023-10-04T08:18:08.169Z,52.12
2023-10-04T08:19:08.069Z,52.24
2023-10-04T08:20:07.968Z,52.24
2023-10-04T08:21:07.957Z,52.24
2023-10-04T08:22:07.947Z,52.26
2023-10-04T08:23:07.961Z,52.37
2023-10-04T08:24:07.988Z,52.39
2023-10-04T08:25:07.881Z,52.39
2023-10-04T08:26:07.885Z,52.49
2023-10-04T08:27:07.867Z,52.51
2023-10-04T08:28:07.887Z,52.62
2023-10-04T08:29:07.856Z,52.62
2023-10-04T08:30:07.939Z,52.64
2023-10-04T08:31:07.974Z,52.74
2023-10-04T08:32:07.826Z,52.74
2023-10-04T08:33:07.893Z,52.77
2023-10-04T08:34:07.802Z,52.77
2023-10-04T08:35:07.743Z,52.87
2023-10-04T08:36:07.756Z,52.87
2023-10-04T08:37:07.727Z,52.87
2023-10-04T08:38:08.024Z,52.87
2023-10-04T08:39:07.730Z,52.87
2023-10-04T08:40:07.725Z,52.80
2023-10-04T08:41:07.666Z,52.80
2023-10-04T08:42:07.677Z,52.69
2023-10-04T08:43:07.661Z,52.69
2023-10-04T08:44:07.708Z,52.59
2023-10-04T08:45:07.648Z,52.59
2023-10-04T08:46:07.693Z,52.49
2023-10-04T08:47:07.604Z,52.39
2023-10-04T08:48:07.692Z,52.29
2023-10-04T08:49:07.701Z,52.29
2023-10-04T08:50:07.564Z,52.29
2023-10-04T08:51:07.562Z,52.29
2023-10-04T08:52:07.622Z,52.29
2023-10-04T08:53:07.532Z,52.39
2023-10-04T08:54:07.624Z,52.37
2023-10-04T08:55:07.526Z,52.26
2023-10-04T08:56:07.513Z,52.04
2023-10-04T08:57:07.510Z,51.81
2023-10-04T08:58:07.474Z,51.59
2023-10-04T08:59:07.447Z,51.26
2023-10-04T09:00:14.850Z,51.06
2023-10-04T09:01:07.490Z,50.93
2023-10-04T09:02:07.477Z,50.93
2023-10-04T09:03:07.463Z,50.91
2023-10-04T09:04:07.567Z,51.01
2023-10-04T09:05:07.383Z,51.01
2023-10-04T09:06:07.388Z,51.19
2023-10-04T09:07:07.327Z,51.19
2023-10-04T09:08:07.344Z,51.19
2023-10-04T09:09:08.142Z,51.19
2023-10-04T09:10:07.612Z,51.17
2023-10-04T09:11:07.279Z,51.17
2023-10-04T09:12:07.273Z,51.04
2023-10-04T09:13:07.300Z,50.94
2023-10-04T09:14:07.267Z,50.81
2023-10-04T09:15:09.066Z,50.71
2023-10-04T09:16:07.280Z,50.39
2023-10-04T09:17:07.213Z,50.07
2023-10-04T09:18:07.269Z,49.74
2023-10-04T09:19:07.177Z,49.62
2023-10-04T09:20:07.195Z,49.52
2023-10-04T09:21:07.367Z,49.49
2023-10-04T09:22:07.195Z,49.49
2023-10-04T09:23:07.165Z,49.27
2023-10-04T09:24:07.379Z,49.05
2023-10-04T09:25:07.183Z,48.82
2023-10-04T09:26:07.098Z,48.70
2023-10-04T09:27:07.145Z,48.70
2023-10-04T09:28:07.929Z,48.25
2023-10-04T09:29:07.037Z,47.71
2023-10-04T09:30:07.063Z,47.09
2023-10-04T09:31:07.160Z,46.65
2023-10-04T09:32:07.043Z,46.01
2023-10-04T09:33:07.017Z,46.31
2023-10-04T09:34:07.026Z,46.60
2023-10-04T09:35:06.977Z,46.80
2023-10-04T09:36:06.980Z,47.00
2023-10-04T09:37:06.922Z,46.88
2023-10-04T09:38:06.945Z,46.66
2023-10-04T09:39:06.896Z,45.28
2023-10-04T09:40:06.912Z,42.24
2023-10-04T09:41:06.899Z,42.00
2023-10-04T09:42:06.870Z,39.56
2023-10-04T09:43:06.845Z,38.21
2023-10-04T09:44:06.838Z,39.74
2023-10-04T09:45:06.813Z,40.86
2023-10-04T09:46:06.847Z,39.25
2023-10-04T09:47:07.043Z,38.63
2023-10-04T09:48:06.846Z,40.27
2023-10-04T09:49:06.761Z,42.02
2023-10-04T09:50:06.793Z,43.46
2023-10-04T09:51:06.756Z,44.60
2023-10-04T09:52:06.745Z,45.63
2023-10-04T09:53:06.736Z,46.47
2023-10-04T09:54:06.716Z,47.18
2023-10-04T09:55:06.697Z,47.81
2023-10-04T09:56:06.687Z,48.36
2023-10-04T09:57:06.674Z,48.88
2023-10-04T09:58:06.661Z,49.19
2023-10-04T09:59:06.655Z,49.52
2023-10-04T10:00:06.641Z,49.74
2023-10-04T10:01:06.689Z,49.94
2023-10-04T10:02:06.627Z,49.96
2023-10-04T10:03:06.642Z,50.16
2023-10-04T10:04:06.980Z,50.18
2023-10-04T10:05:06.634Z,50.18
2023-10-04T10:06:06.558Z,50.28
2023-10-04T10:07:06.539Z,50.11
2023-10-04T10:08:06.531Z,50.11
2023-10-04T10:09:06.524Z,50.11
2023-10-04T10:10:13.617Z,50.11
2023-10-04T10:11:06.518Z,50.23
2023-10-04T10:12:06.476Z,50.33
2023-10-04T10:13:06.451Z,50.56
2023-10-04T10:14:06.676Z,50.56
2023-10-04T10:15:06.431Z,50.65
2023-10-04T10:16:06.465Z,50.68
2023-10-04T10:17:06.464Z,50.78
2023-10-04T10:18:06.438Z,50.78
2023-10-04T10:19:06.373Z,50.68
2023-10-04T10:20:06.361Z,50.58
2023-10-04T10:21:06.361Z,50.58
2023-10-04T10:22:06.340Z,50.58
2023-10-04T10:23:06.357Z,50.70
2023-10-04T10:24:06.535Z,50.90
2023-10-04T10:25:06.300Z,51.03
2023-10-04T10:26:06.284Z,51.12
2023-10-04T10:27:06.288Z,51.12
2023-10-04T10:28:06.340Z,51.25
2023-10-04T10:29:06.591Z,51.25
2023-10-04T10:30:06.235Z,51.25
2023-10-04T10:31:07.165Z,51.15
2023-10-04T10:32:06.200Z,50.95
2023-10-04T10:33:06.288Z,50.73
2023-10-04T10:34:06.779Z,50.43
2023-10-04T10:35:07.089Z,50.10
2023-10-04T10:36:06.151Z,49.68
2023-10-04T10:37:06.130Z,49.36
2023-10-04T10:38:06.912Z,49.07
2023-10-04T10:39:06.124Z,48.84
2023-10-04T10:40:06.148Z,48.96
2023-10-04T10:41:06.087Z,49.36
2023-10-04T10:42:06.110Z,49.58
2023-10-04T10:43:06.061Z,49.91
2023-10-04T10:44:10.277Z,50.20
2023-10-04T10:45:06.029Z,50.52
2023-10-04T10:46:06.073Z,50.85
2023-10-04T10:47:06.256Z,50.95
2023-10-04T10:48:07.053Z,51.07
2023-10-04T10:49:06.010Z,51.17
2023-10-04T10:50:06.596Z,51.07
2023-10-04T10:51:06.589Z,50.98
2023-10-04T10:52:05.978Z,50.85
2023-10-04T10:53:05.928Z,50.65
2023-10-04T10:54:06.117Z,50.55
2023-10-04T10:55:05.894Z,50.45
2023-10-04T10:56:05.874Z,50.45
2023-10-04T10:57:05.871Z,50.45
2023-10-04T10:58:05.912Z,50.55
2023-10-04T10:59:05.846Z,50.55
2023-10-04T11:00:05.831Z,50.68
2023-10-04T11:01:05.861Z,50.78
2023-10-04T11:02:05.998Z,50.78
2023-10-04T11:03:05.845Z,50.87
2023-10-04T11:04:05.988Z,50.87
2023-10-04T11:05:05.755Z,50.68
2023-10-04T11:06:05.776Z,50.68
2023-10-04T11:07:05.728Z,50.68
2023-10-04T11:08:05.738Z,50.55
2023-10-04T11:09:05.772Z,50.57
2023-10-04T11:10:05.966Z,50.68
2023-10-04T11:11:05.672Z,50.87
2023-10-04T11:12:05.700Z,51.00
2023-10-04T11:13:05.666Z,51.20
2023-10-04T11:14:06.473Z,51.32
2023-10-04T11:15:05.712Z,51.52
2023-10-04T11:16:05.649Z,51.62
2023-10-04T11:17:05.664Z,51.52
2023-10-04T11:18:05.628Z,51.62
2023-10-04T11:19:05.565Z,51.62
2023-10-04T11:20:05.682Z,51.52
2023-10-04T11:21:05.627Z,51.42
2023-10-04T11:22:07.797Z,51.52
2023-10-04T11:23:06.080Z,51.42
2023-10-04T11:24:05.888Z,51.42
2023-10-04T11:25:06.072Z,51.42
2023-10-04T11:26:05.578Z,51.54
2023-10-04T11:27:05.469Z,51.54
2023-10-04T11:28:05.510Z,51.65
2023-10-04T11:29:05.465Z,51.65
2023-10-04T11:30:05.543Z,51.65
2023-10-04T11:31:05.473Z,51.67
2023-10-04T11:32:05.420Z,51.77
2023-10-04T11:33:05.473Z,51.89
2023-10-04T11:34:05.624Z,52.09
2023-10-04T11:35:05.409Z,52.19
2023-10-04T11:36:05.350Z,52.32
2023-10-04T11:37:05.341Z,52.32
2023-10-04T11:38:06.166Z,52.42
2023-10-04T11:39:05.313Z,52.32
2023-10-04T11:40:05.304Z,52.32
2023-10-04T11:41:05.293Z,52.32
2023-10-04T11:42:05.287Z,52.32
2023-10-04T11:43:05.283Z,52.32
2023-10-04T11:44:05.452Z,52.12
2023-10-04T11:45:05.223Z,51.92
2023-10-04T11:46:05.479Z,51.59
2023-10-04T11:47:06.066Z,51.17
2023-10-04T11:48:06.104Z,50.85
2023-10-04T11:49:05.213Z,50.65
2023-10-04T11:50:05.205Z,50.43
2023-10-04T11:51:05.441Z,50.32
2023-10-04T11:52:05.187Z,50.23
2023-10-04T11:53:05.256Z,50.23
2023-10-04T11:54:05.237Z,50.32
2023-10-04T11:55:05.106Z,50.52
2023-10-04T11:56:05.167Z,50.62
2023-10-04T11:57:05.063Z,50.82
2023-10-04T11:58:05.080Z,50.95
2023-10-04T11:59:05.061Z,51.15
2023-10-04T12:00:05.026Z,51.15
2023-10-04T12:01:05.566Z,51.25
2023-10-04T12:02:05.656Z,51.37
2023-10-04T12:03:05.073Z,51.47
2023-10-04T12:04:05.332Z,51.37
2023-10-04T12:05:04.990Z,51.37
2023-10-04T12:06:05.023Z,51.17
2023-10-04T12:07:04.959Z,50.95
2023-10-04T12:08:04.917Z,50.95
2023-10-04T12:09:04.913Z,50.85
2023-10-04T12:10:04.888Z,50.65
2023-10-04T12:11:06.438Z,50.43
2023-10-04T12:12:05.081Z,50.00
2023-10-04T12:13:05.019Z,49.78
2023-10-04T12:14:05.850Z,49.58
2023-10-04T12:15:05.561Z,49.55
2023-10-04T12:16:04.889Z,49.36
2023-10-04T12:17:05.041Z,49.36
2023-10-04T12:18:05.604Z,49.46
2023-10-04T12:19:04.853Z,49.66
2023-10-04T12:20:04.751Z,49.85
2023-10-04T12:21:04.764Z,49.76
2023-10-04T12:22:04.781Z,49.85
2023-10-04T12:23:04.723Z,49.76
2023-10-04T12:24:05.043Z,49.53
2023-10-04T12:25:05.628Z,49.33
2023-10-04T12:26:06.721Z,49.43
2023-10-04T12:27:04.674Z,49.43
2023-10-04T12:28:04.656Z,49.63
2023-10-04T12:29:04.639Z,49.83
2023-10-04T12:30:04.658Z,49.93
2023-10-04T12:31:04.761Z,50.03
2023-10-04T12:32:04.592Z,50.15
2023-10-04T12:33:04.633Z,50.25
2023-10-04T12:34:04.854Z,50.35
2023-10-04T12:35:04.614Z,50.45
2023-10-04T12:36:04.562Z,50.45
2023-10-04T12:37:04.597Z,50.55
2023-10-04T12:38:04.567Z,50.55
2023-10-04T12:39:04.557Z,50.45
2023-10-04T12:40:04.473Z,50.33
2023-10-04T12:41:04.499Z,50.13
2023-10-04T12:42:04.479Z,50.13
2023-10-04T12:43:04.537Z,50.10
2023-10-04T12:44:04.714Z,50.10
2023-10-04T12:45:04.426Z,50.33
2023-10-04T12:46:04.548Z,50.63
2023-10-04T12:47:04.447Z,50.63
2023-10-04T12:48:04.460Z,50.63
2023-10-04T12:49:04.423Z,50.52
2023-10-04T12:50:04.365Z,50.63
2023-10-04T12:51:04.344Z,50.63
2023-10-04T12:52:04.607Z,50.73